createdAt,value
2018-09-30T00:01:53.938Z,2.00
2018-09-30T00:04:22.486Z,1.97
2018-09-30T00:06:51.041Z,1.90
2018-09-30T00:09:22.521Z,2.23
2018-09-30T00:11:51.085Z,2.00
2018-09-30T00:14:19.622Z,2.67
2018-09-30T00:16:48.192Z,2.67
2018-09-30T00:19:16.773Z,2.13
2018-09-30T00:21:45.333Z,2.17
2018-09-30T00:24:19.294Z,2.20
2018-09-30T00:26:53.132Z,2.20
2018-09-30T00:29:21.713Z,2.10
2018-09-30T00:31:50.386Z,2.60
2018-09-30T00:34:25.447Z,2.33
2018-09-30T00:36:55.894Z,2.70
2018-09-30T00:39:24.733Z,2.27
2018-09-30T00:41:53.754Z,1.97
2018-09-30T00:44:22.518Z,2.23
2018-09-30T00:46:51.431Z,2.33
2018-09-30T00:49:19.977Z,2.37
2018-09-30T00:51:48.549Z,2.23
2018-09-30T00:54:17.086Z,2.10
2018-09-30T00:56:45.657Z,2.35
2018-09-30T00:59:14.213Z,2.00
2018-09-30T01:01:43.040Z,2.00
2018-09-30T01:04:11.621Z,2.10
2018-09-30T01:06:40.194Z,1.95
2018-09-30T01:09:11.162Z,1.70
2018-09-30T01:11:39.717Z,2.17
2018-09-30T01:14:08.418Z,2.05
2018-09-30T01:16:37.213Z,1.77
2018-09-30T01:19:05.874Z,1.42
2018-09-30T01:21:34.659Z,1.87
2018-09-30T01:24:03.286Z,2.22
2018-09-30T01:26:31.790Z,2.00
2018-09-30T01:29:00.647Z,1.87
2018-09-30T01:31:29.158Z,2.10
2018-09-30T01:33:58.648Z,2.07
2018-09-30T01:36:27.164Z,2.07
2018-09-30T01:38:55.713Z,2.13
2018-09-30T01:41:24.359Z,2.30
2018-09-30T01:43:52.905Z,2.23
2018-09-30T01:46:21.416Z,1.97
2018-09-30T01:48:49.958Z,1.98
2018-09-30T01:51:18.501Z,1.80
2018-09-30T01:53:47.042Z,2.37
2018-09-30T01:56:15.545Z,2.10
2018-09-30T01:58:44.085Z,1.98
2018-09-30T02:01:12.609Z,2.37
2018-09-30T02:03:41.156Z,1.93
2018-09-30T02:06:09.698Z,2.10
2018-09-30T02:08:38.316Z,1.70
2018-09-30T02:11:07.050Z,1.77
2018-09-30T02:13:35.597Z,2.10
2018-09-30T02:16:04.109Z,2.25
2018-09-30T02:18:32.683Z,2.40
2018-09-30T02:21:01.198Z,1.80
2018-09-30T02:23:29.763Z,2.25
2018-09-30T02:25:58.278Z,2.22
2018-09-30T02:28:26.817Z,2.10
2018-09-30T02:30:55.338Z,2.40
2018-09-30T02:33:23.894Z,2.40
2018-09-30T02:35:52.455Z,2.02
2018-09-30T02:38:21.019Z,2.20
2018-09-30T02:40:49.569Z,1.90
2018-09-30T02:43:18.111Z,2.12
2018-09-30T02:45:46.621Z,1.80
2018-09-30T02:48:15.161Z,1.73
2018-09-30T02:50:43.679Z,2.12
2018-09-30T02:53:12.229Z,1.98
2018-09-30T02:55:40.742Z,2.30
2018-09-30T02:58:09.295Z,2.10
2018-09-30T03:00:37.857Z,2.02
2018-09-30T03:03:06.401Z,1.57
2018-09-30T03:05:34.942Z,1.57
2018-09-30T03:08:08.884Z,1.70
2018-09-30T03:10:37.418Z,2.00
2018-09-30T03:13:05.946Z,1.80
2018-09-30T03:15:34.493Z,2.02
2018-09-30T03:18:03.053Z,1.95
2018-09-30T03:20:31.616Z,2.45
2018-09-30T03:23:00.166Z,1.90
2018-09-30T03:25:28.717Z,1.90
2018-09-30T03:27:57.255Z,2.30
2018-09-30T03:30:25.803Z,2.20
2018-09-30T03:32:54.333Z,2.42
2018-09-30T03:35:22.885Z,2.75
2018-09-30T03:37:51.794Z,2.62
2018-09-30T03:40:20.338Z,2.60
2018-09-30T03:42:48.842Z,2.03
2018-09-30T03:45:17.609Z,2.27
2018-09-30T03:47:46.125Z,2.20
2018-09-30T03:50:14.674Z,2.22
2018-09-30T03:52:43.190Z,2.22
2018-09-30T03:55:11.741Z,2.00
2018-09-30T03:57:40.262Z,1.92
2018-09-30T04:00:08.817Z,2.00
2018-09-30T04:02:37.334Z,1.65
2018-09-30T04:05:05.910Z,2.20
2018-09-30T04:07:34.433Z,2.20
2018-09-30T04:10:03.143Z,1.57
2018-09-30T04:12:31.537Z,1.90
2018-09-30T04:15:00.208Z,1.80
2018-09-30T04:17:28.785Z,2.25
2018-09-30T04:19:57.320Z,1.67
2018-09-30T04:22:25.849Z,2.20
2018-09-30T04:24:54.494Z,2.42
2018-09-30T04:27:23.021Z,2.40
2018-09-30T04:29:51.584Z,2.15
2018-09-30T04:32:20.117Z,2.20
2018-09-30T04:34:48.677Z,1.92
2018-09-30T04:37:17.206Z,2.70
2018-09-30T04:39:45.731Z,2.10
2018-09-30T04:42:14.366Z,2.15
2018-09-30T04:44:42.894Z,2.37
2018-09-30T04:47:11.446Z,1.75
2018-09-30T04:49:39.982Z,2.08
2018-09-30T04:52:08.554Z,1.70
2018-09-30T04:54:37.096Z,2.05
2018-09-30T04:57:05.641Z,2.12
2018-09-30T04:59:34.167Z,1.87
2018-09-30T05:02:02.781Z,2.50
2018-09-30T05:04:31.371Z,2.50
2018-09-30T05:06:59.928Z,2.52
2018-09-30T05:09:28.449Z,2.17
2018-09-30T05:11:57.008Z,1.70
2018-09-30T05:14:25.609Z,2.10
2018-09-30T05:16:54.494Z,2.30
2018-09-30T05:19:23.071Z,1.98
2018-09-30T05:21:51.636Z,2.15
2018-09-30T05:24:20.230Z,1.87
2018-09-30T05:26:48.829Z,1.80
2018-09-30T05:29:17.356Z,2.10
2018-09-30T05:31:45.905Z,2.33
2018-09-30T05:34:14.446Z,2.30
2018-09-30T05:36:43.001Z,2.30
2018-09-30T05:39:12.149Z,2.27
2018-09-30T05:41:40.748Z,2.20
2018-09-30T05:44:09.528Z,2.25
2018-09-30T05:46:38.348Z,2.00
2018-09-30T05:49:07.370Z,1.67
2018-09-30T05:51:35.902Z,2.08
2018-09-30T05:54:04.441Z,2.00
2018-09-30T05:56:32.989Z,2.33
2018-09-30T05:59:01.515Z,2.92
2018-09-30T06:01:30.857Z,2.20
2018-09-30T06:03:59.492Z,1.98
2018-09-30T06:06:28.937Z,2.12
2018-09-30T06:08:57.476Z,3.45
2018-09-30T06:11:26.045Z,2.92
2018-09-30T06:13:54.606Z,2.87
2018-09-30T06:16:23.142Z,2.27
2018-09-30T06:18:51.693Z,2.15
2018-09-30T06:21:20.257Z,2.20
2018-09-30T06:23:48.795Z,2.30
2018-09-30T06:26:17.325Z,2.05
2018-09-30T06:28:45.871Z,2.15
2018-09-30T06:31:14.421Z,2.58
2018-09-30T06:33:42.977Z,2.92
2018-09-30T06:36:11.509Z,2.52
2018-09-30T06:38:40.076Z,2.50
2018-09-30T06:41:09.470Z,3.75
2018-09-30T06:43:38.027Z,3.67
2018-09-30T06:46:06.563Z,2.92
2018-09-30T06:48:35.126Z,2.67
2018-09-30T06:51:03.709Z,2.52
2018-09-30T06:53:32.275Z,2.45
2018-09-30T06:56:00.807Z,2.70
2018-09-30T06:58:29.415Z,3.12
2018-09-30T07:00:58.015Z,3.10
2018-09-30T07:03:26.623Z,4.10
2018-09-30T07:05:55.153Z,2.93
2018-09-30T07:08:23.705Z,3.80
2018-09-30T07:10:52.336Z,3.37
2018-09-30T07:13:20.869Z,3.17
2018-09-30T07:15:49.393Z,2.73
2018-09-30T07:18:17.954Z,2.80
2018-09-30T07:20:46.457Z,2.70
2018-09-30T07:23:15.192Z,2.53
2018-09-30T07:25:43.762Z,2.87
2018-09-30T07:28:18.782Z,2.63
2018-09-30T07:30:47.325Z,2.30
2018-09-30T07:33:16.095Z,2.67
2018-09-30T07:35:44.597Z,2.77
2018-09-30T07:38:13.128Z,2.47
2018-09-30T07:40:41.640Z,2.60
2018-09-30T07:43:10.180Z,2.10
2018-09-30T07:45:38.715Z,2.20
2018-09-30T07:48:07.286Z,2.00
2018-09-30T07:50:35.815Z,2.10
2018-09-30T07:53:04.378Z,2.10
2018-09-30T07:55:32.902Z,1.87
2018-09-30T07:58:01.438Z,2.33
2018-09-30T08:00:29.961Z,2.13
2018-09-30T08:02:58.481Z,2.07
2018-09-30T08:05:27.027Z,1.87
2018-09-30T08:07:55.525Z,2.30
2018-09-30T08:10:24.089Z,2.13
2018-09-30T08:12:52.651Z,2.43
2018-09-30T08:15:21.217Z,2.37
2018-09-30T08:17:49.757Z,2.30
2018-09-30T08:20:18.378Z,1.90
2018-09-30T08:22:48.612Z,2.00
2018-09-30T08:25:17.208Z,2.00
2018-09-30T08:27:45.741Z,2.07
2018-09-30T08:30:14.295Z,2.30
2018-09-30T08:32:42.866Z,2.50
2018-09-30T08:35:11.466Z,2.40
2018-09-30T08:37:45.261Z,2.20
2018-09-30T08:40:17.448Z,2.13
2018-09-30T08:42:45.969Z,2.00
2018-09-30T08:45:14.554Z,2.10
2018-09-30T08:47:43.161Z,1.60
2018-09-30T08:50:11.664Z,2.07
2018-09-30T08:52:40.185Z,1.90
2018-09-30T08:55:08.746Z,2.07
2018-09-30T08:57:37.274Z,1.50
2018-09-30T09:00:05.913Z,1.90
2018-09-30T09:02:34.478Z,1.73
2018-09-30T09:05:03.654Z,2.20
2018-09-30T09:07:32.197Z,1.97
2018-09-30T09:10:00.753Z,1.80
2018-09-30T09:12:29.382Z,1.93
2018-09-30T09:14:57.942Z,2.30
2018-09-30T09:17:26.461Z,2.30
2018-09-30T09:19:55.165Z,1.80
2018-09-30T09:22:23.692Z,2.00
2018-09-30T09:24:52.258Z,1.80
2018-09-30T09:27:20.787Z,1.70
2018-09-30T09:29:50.028Z,1.83
2018-09-30T09:32:18.541Z,2.63
2018-09-30T09:34:47.107Z,2.63
2018-09-30T09:37:15.625Z,2.23
2018-09-30T09:39:44.336Z,2.37
2018-09-30T09:42:12.914Z,2.60
2018-09-30T09:44:41.461Z,2.50
2018-09-30T09:47:10.056Z,3.00
2018-09-30T09:49:38.606Z,3.37
2018-09-30T09:52:07.169Z,2.73
2018-09-30T09:54:36.089Z,3.10
2018-09-30T09:57:04.631Z,2.83
2018-09-30T09:59:33.221Z,2.40
2018-09-30T10:02:01.850Z,2.20
2018-09-30T10:04:30.396Z,3.43
2018-09-30T10:06:59.568Z,3.13
2018-09-30T10:09:28.162Z,2.70
2018-09-30T10:11:56.748Z,3.33
2018-09-30T10:14:25.503Z,3.23
2018-09-30T10:16:54.589Z,2.97
2018-09-30T10:19:23.237Z,2.63
2018-09-30T10:21:51.759Z,2.70
2018-09-30T10:24:20.272Z,2.70
2018-09-30T10:26:48.809Z,3.43
2018-09-30T10:29:17.318Z,3.20
2018-09-30T10:31:45.933Z,3.03
2018-09-30T10:34:14.448Z,2.80
2018-09-30T10:36:42.995Z,2.97
2018-09-30T10:39:12.114Z,2.97
2018-09-30T10:41:41.098Z,3.40
2018-09-30T10:44:10.070Z,4.10
2018-09-30T10:46:38.638Z,3.70
2018-09-30T10:49:07.505Z,2.87
2018-09-30T10:51:36.045Z,3.30
2018-09-30T10:54:04.578Z,3.50
2018-09-30T10:56:33.122Z,4.07
2018-09-30T10:59:01.662Z,3.83
2018-09-30T11:01:30.310Z,3.40
2018-09-30T11:03:58.842Z,3.70
2018-09-30T11:06:27.526Z,4.00
2018-09-30T11:08:56.583Z,3.80
2018-09-30T11:11:25.398Z,3.50
2018-09-30T11:13:54.034Z,3.97
2018-09-30T11:16:22.911Z,3.60
2018-09-30T11:18:51.549Z,3.67
2018-09-30T11:21:20.138Z,3.63
2018-09-30T11:23:48.666Z,3.50
2018-09-30T11:26:17.278Z,3.50
2018-09-30T11:28:45.796Z,3.13
2018-09-30T11:31:14.466Z,3.33
2018-09-30T11:33:43.002Z,2.90
2018-09-30T11:36:11.557Z,2.80
2018-09-30T11:38:40.084Z,3.70
2018-09-30T11:41:08.682Z,3.70
2018-09-30T11:43:37.250Z,3.57
2018-09-30T11:46:05.791Z,3.50
2018-09-30T11:48:34.357Z,3.03
2018-09-30T11:51:03.530Z,3.50
2018-09-30T11:53:32.091Z,3.27
2018-09-30T11:56:00.620Z,2.93
2018-09-30T11:58:29.172Z,3.07
2018-09-30T12:00:57.739Z,3.10
2018-09-30T12:03:26.338Z,3.37
2018-09-30T12:05:54.861Z,2.90
2018-09-30T12:08:23.418Z,2.90
2018-09-30T12:10:51.962Z,2.83
2018-09-30T12:13:20.550Z,2.90
2018-09-30T12:15:49.085Z,3.30
2018-09-30T12:18:17.652Z,2.83
2018-09-30T12:20:46.163Z,3.03
2018-09-30T12:23:14.706Z,3.03
2018-09-30T12:25:43.377Z,3.07
2018-09-30T12:28:11.890Z,2.70
2018-09-30T12:30:40.418Z,3.03
2018-09-30T12:33:08.968Z,3.13
2018-09-30T12:35:37.488Z,2.97
2018-09-30T12:38:06.034Z,2.57
2018-09-30T12:40:34.561Z,3.00
2018-09-30T12:43:03.097Z,2.70
2018-09-30T12:45:31.742Z,3.80
2018-09-30T12:48:00.285Z,2.70
2018-09-30T12:50:28.798Z,2.57
2018-09-30T12:52:57.337Z,2.80
2018-09-30T12:55:25.858Z,2.93
2018-09-30T12:57:54.449Z,2.57
2018-09-30T13:00:22.966Z,2.90
2018-09-30T13:02:51.526Z,3.07
2018-09-30T13:05:20.128Z,2.70
2018-09-30T13:07:48.642Z,2.90
2018-09-30T13:10:17.202Z,2.60
2018-09-30T13:12:45.801Z,3.67
2018-09-30T13:15:14.341Z,3.10
2018-09-30T13:17:42.861Z,2.90
2018-09-30T13:20:11.433Z,2.77
2018-09-30T13:22:40.198Z,2.57
2018-09-30T13:25:08.760Z,3.03
2018-09-30T13:27:37.285Z,2.60
2018-09-30T13:30:06.077Z,2.90
2018-09-30T13:32:34.628Z,2.90
2018-09-30T13:35:03.185Z,2.97
2018-09-30T13:37:33.048Z,2.80
2018-09-30T13:40:01.603Z,2.63
2018-09-30T13:42:32.189Z,2.87
2018-09-30T13:45:00.977Z,2.77
2018-09-30T13:47:31.219Z,3.10
2018-09-30T13:49:59.958Z,2.23
2018-09-30T13:52:32.034Z,2.70
2018-09-30T13:55:00.649Z,3.10
2018-09-30T13:57:29.173Z,2.60
2018-09-30T13:59:57.749Z,2.63
2018-09-30T14:02:26.313Z,3.10
2018-09-30T14:04:55.434Z,2.80
2018-09-30T14:07:23.978Z,2.60
2018-09-30T14:09:52.581Z,2.60
2018-09-30T14:12:21.217Z,2.60
2018-09-30T14:14:49.794Z,2.83
2018-09-30T14:17:18.409Z,3.00
2018-09-30T14:19:46.985Z,2.70
2018-09-30T14:22:15.492Z,3.07
2018-09-30T14:24:45.044Z,2.63
2018-09-30T14:27:13.668Z,2.97
2018-09-30T14:29:42.232Z,2.70
2018-09-30T14:32:10.761Z,2.97
2018-09-30T14:34:39.517Z,2.80
2018-09-30T14:37:08.057Z,2.90
2018-09-30T14:39:36.624Z,3.40
2018-09-30T14:42:05.229Z,2.83
2018-09-30T14:44:33.777Z,3.00
2018-09-30T14:47:02.341Z,2.97
2018-09-30T14:49:30.889Z,2.97
2018-09-30T14:51:59.426Z,2.90
2018-09-30T14:54:28.164Z,3.10
2018-09-30T14:56:56.646Z,2.80
2018-09-30T14:59:25.249Z,2.93
2018-09-30T15:01:53.797Z,3.13
2018-09-30T15:04:22.413Z,3.10
2018-09-30T15:06:50.977Z,2.43
2018-09-30T15:09:19.526Z,2.60
2018-09-30T15:11:48.139Z,3.00
2018-09-30T15:14:16.657Z,4.10
2018-09-30T15:16:45.218Z,4.03
2018-09-30T15:19:13.765Z,3.37
2018-09-30T15:21:42.678Z,3.13
2018-09-30T15:24:11.212Z,2.97
2018-09-30T15:26:39.761Z,2.60
2018-09-30T15:29:08.295Z,3.30
2018-09-30T15:31:36.858Z,2.87
2018-09-30T15:34:06.412Z,3.90
2018-09-30T15:36:34.994Z,3.23
2018-09-30T15:39:05.124Z,2.80
2018-09-30T15:41:33.730Z,2.80
2018-09-30T15:44:02.343Z,3.17
2018-09-30T15:46:31.397Z,3.13
2018-09-30T15:49:00.099Z,3.60
2018-09-30T15:51:28.822Z,3.10
2018-09-30T15:53:57.569Z,2.90
2018-09-30T15:56:26.137Z,2.73
2018-09-30T15:58:54.680Z,3.03
2018-09-30T16:01:23.472Z,3.07
2018-09-30T16:03:52.407Z,2.87
2018-09-30T16:06:21.019Z,3.03
2018-09-30T16:08:49.813Z,3.10
2018-09-30T16:11:18.377Z,2.97
2018-09-30T16:13:46.925Z,2.70
2018-09-30T16:16:15.490Z,3.20
2018-09-30T16:18:44.048Z,3.40
2018-09-30T16:21:13.009Z,3.80
2018-09-30T16:23:41.833Z,3.77
2018-09-30T16:26:10.398Z,3.33
2018-09-30T16:28:38.953Z,2.57
2018-09-30T16:31:07.541Z,2.77
2018-09-30T16:33:36.272Z,3.00
2018-09-30T16:36:04.873Z,2.87
2018-09-30T16:38:33.446Z,2.70
2018-09-30T16:41:02.013Z,3.27
2018-09-30T16:43:30.551Z,3.47
2018-09-30T16:45:59.296Z,3.13
2018-09-30T16:48:27.881Z,3.33
2018-09-30T16:50:56.456Z,3.03
2018-09-30T16:53:24.985Z,3.70
2018-09-30T16:55:53.544Z,3.40
2018-09-30T16:58:22.066Z,3.20
2018-09-30T17:00:50.789Z,3.10
2018-09-30T17:03:19.323Z,2.70
2018-09-30T17:05:47.870Z,3.07
2018-09-30T17:08:16.439Z,2.90
2018-09-30T17:10:45.078Z,3.10
2018-09-30T17:13:14.026Z,3.10
2018-09-30T17:15:42.619Z,2.80
2018-09-30T17:18:11.194Z,3.17
2018-09-30T17:20:39.743Z,3.20
2018-09-30T17:23:08.297Z,3.53
2018-09-30T17:25:36.944Z,3.97
2018-09-30T17:28:05.497Z,3.57
2018-09-30T17:30:34.006Z,3.70
2018-09-30T17:33:02.557Z,3.57
2018-09-30T17:35:31.085Z,3.57
2018-09-30T17:37:59.959Z,3.87
2018-09-30T17:40:28.437Z,3.77
2018-09-30T17:42:56.961Z,4.43
2018-09-30T17:45:25.494Z,3.93
2018-09-30T17:47:54.081Z,4.50
2018-09-30T17:50:22.636Z,4.33
2018-09-30T17:52:51.659Z,4.23
2018-09-30T17:55:20.173Z,4.53
2018-09-30T17:57:48.742Z,4.70
2018-09-30T18:00:17.287Z,5.00
2018-09-30T18:02:46.439Z,4.63
2018-09-30T18:05:14.960Z,5.30
2018-09-30T18:07:43.538Z,5.07
2018-09-30T18:10:12.064Z,4.63
2018-09-30T18:12:40.750Z,4.30
2018-09-30T18:15:09.390Z,4.33
2018-09-30T18:17:38.038Z,4.80
2018-09-30T18:20:07.648Z,4.83
2018-09-30T18:22:36.244Z,4.60
2018-09-30T18:25:04.828Z,4.03
2018-09-30T18:27:34.120Z,4.03
2018-09-30T18:30:02.694Z,3.73
2018-09-30T18:32:31.254Z,4.07
2018-09-30T18:34:59.934Z,3.93
2018-09-30T18:37:28.501Z,3.87
2018-09-30T18:39:57.081Z,4.43
2018-09-30T18:42:25.661Z,4.10
2018-09-30T18:44:54.185Z,3.40
2018-09-30T18:47:22.762Z,4.30
2018-09-30T18:49:51.299Z,4.37
2018-09-30T18:52:19.854Z,4.00
2018-09-30T18:54:48.377Z,4.07
2018-09-30T18:57:17.041Z,4.00
2018-09-30T18:59:45.609Z,4.17
2018-09-30T19:02:14.201Z,3.80
2018-09-30T19:04:42.765Z,3.80
2018-09-30T19:07:11.313Z,4.30
2018-09-30T19:09:39.854Z,4.60
2018-09-30T19:12:08.810Z,4.53
2018-09-30T19:14:37.298Z,3.63
2018-09-30T19:17:05.848Z,4.53
2018-09-30T19:19:34.429Z,4.90
2018-09-30T19:22:02.961Z,4.30
2018-09-30T19:24:31.522Z,5.07
2018-09-30T19:27:00.054Z,5.30
2018-09-30T19:29:28.769Z,5.73
2018-09-30T19:31:57.547Z,5.70
2018-09-30T19:34:26.133Z,5.90
2018-09-30T19:36:54.662Z,5.70
2018-09-30T19:39:23.224Z,4.73
2018-09-30T19:41:51.831Z,5.20
2018-09-30T19:44:20.454Z,5.43
2018-09-30T19:46:48.993Z,5.33
2018-09-30T19:49:17.564Z,5.60
2018-09-30T19:51:46.126Z,4.40
2018-09-30T19:54:14.670Z,4.90
2018-09-30T19:56:43.245Z,5.13
2018-09-30T19:59:11.802Z,5.07
2018-09-30T20:01:40.434Z,5.20
2018-09-30T20:04:08.990Z,5.20
2018-09-30T20:06:37.542Z,4.50
2018-09-30T20:09:07.666Z,5.37
2018-09-30T20:11:36.409Z,4.90
2018-09-30T20:14:04.971Z,4.90
2018-09-30T20:16:33.741Z,5.33
2018-09-30T20:19:02.346Z,5.40
2018-09-30T20:21:30.901Z,6.30
2018-09-30T20:23:59.460Z,6.40
2018-09-30T20:26:28.072Z,6.77
2018-09-30T20:28:56.598Z,7.00
2018-09-30T20:31:25.953Z,6.73
2018-09-30T20:33:55.301Z,5.10
2018-09-30T20:36:23.913Z,4.73
2018-09-30T20:38:52.445Z,4.73
2018-09-30T20:41:21.033Z,4.70
2018-09-30T20:43:49.946Z,5.03
2018-09-30T20:46:18.864Z,4.80
2018-09-30T20:48:47.412Z,5.03
2018-09-30T20:51:15.979Z,4.33
2018-09-30T20:53:44.517Z,4.60
2018-09-30T20:56:13.113Z,4.67
2018-09-30T20:58:41.649Z,8.13
2018-09-30T21:01:10.194Z,5.30
2018-09-30T21:03:38.965Z,4.17
2018-09-30T21:06:15.131Z,5.43
2018-09-30T21:08:44.809Z,5.20
2018-09-30T21:11:13.357Z,4.97
2018-09-30T21:13:42.281Z,5.33
2018-09-30T21:16:10.833Z,5.57
2018-09-30T21:18:39.405Z,6.77
2018-09-30T21:21:07.911Z,7.00
2018-09-30T21:23:36.451Z,6.07
2018-09-30T21:26:05.005Z,3.17
2018-09-30T21:28:33.529Z,6.07
2018-09-30T21:31:02.097Z,5.57
2018-09-30T21:33:30.658Z,5.43
2018-09-30T21:35:59.199Z,4.90
2018-09-30T21:38:27.713Z,5.37
2018-09-30T21:40:56.378Z,5.27
2018-09-30T21:43:24.892Z,5.13
2018-09-30T21:45:53.434Z,5.17
2018-09-30T21:48:22.164Z,5.33
2018-09-30T21:50:50.706Z,5.30
2018-09-30T21:53:19.537Z,5.47
2018-09-30T21:55:48.078Z,4.47
2018-09-30T21:58:16.594Z,5.00
2018-09-30T22:00:50.518Z,5.30
2018-09-30T22:03:19.046Z,5.23
2018-09-30T22:05:47.590Z,5.30
2018-09-30T22:08:16.097Z,5.40
2018-09-30T22:10:45.438Z,5.47
2018-09-30T22:13:14.285Z,5.03
2018-09-30T22:15:43.071Z,5.17
2018-09-30T22:18:11.849Z,5.67
2018-09-30T22:20:40.454Z,5.60
2018-09-30T22:23:09.041Z,5.37
2018-09-30T22:25:37.596Z,5.57
2018-09-30T22:28:06.197Z,5.27
2018-09-30T22:30:34.853Z,5.27
2018-09-30T22:33:03.857Z,5.93
2018-09-30T22:35:32.517Z,5.73
2018-09-30T22:38:01.045Z,4.80
2018-09-30T22:40:29.606Z,4.90
2018-09-30T22:42:58.394Z,4.60
2018-09-30T22:45:26.988Z,5.20
2018-09-30T22:47:55.550Z,4.60
2018-09-30T22:50:24.149Z,4.60
2018-09-30T22:52:52.714Z,3.80
2018-09-30T22:55:21.274Z,3.87
2018-09-30T22:57:49.815Z,3.50
2018-09-30T23:00:18.398Z,3.60
2018-09-30T23:02:46.936Z,3.30
2018-09-30T23:05:15.493Z,3.70
2018-09-30T23:07:44.026Z,3.97
2018-09-30T23:10:13.373Z,3.33
2018-09-30T23:12:42.124Z,3.40
2018-09-30T23:15:11.038Z,3.10
2018-09-30T23:17:39.635Z,3.20
2018-09-30T23:20:13.566Z,3.40
2018-09-30T23:22:42.300Z,3.33
2018-09-30T23:25:11.045Z,3.20
2018-09-30T23:27:39.569Z,3.33
2018-09-30T23:30:08.285Z,3.60
2018-09-30T23:32:37.373Z,3.87
2018-09-30T23:35:05.937Z,3.83
2018-09-30T23:37:34.466Z,3.80
2018-09-30T23:40:03.249Z,3.80
2018-09-30T23:42:31.779Z,3.60
2018-09-30T23:45:00.320Z,3.77
2018-09-30T23:47:28.825Z,3.87
2018-09-30T23:49:57.355Z,3.70
2018-09-30T23:52:25.862Z,3.80
2018-09-30T23:54:54.400Z,3.83
2018-09-30T23:57:22.938Z,3.63
2018-09-30T23:59:51.457Z,3.20
